Time;durP1;ratioP1;P1;durP2;ratioP2;P2;SDS_P1;SDS_P2;PMS_P1;PMS_P2;Temp;Humidity;BMP_temperature;BMP_pressure;BME280_temperature;BME280_humidity;BME280_pressure;Samples;Min_cycle;Max_cycle;Signal;HPM_P1;HPM_P2
2023/10/03 00:01:37;;;;;;;26.87;17.30;;;20.20;99.90;;;;;;5015708;28;20545;-70
2023/10/03 00:04:04;;;;;;;26.33;17.03;;;20.20;99.90;;;;;;5015751;28;20160;-70
2023/10/03 00:06:29;;;;;;;28.90;18.77;;;20.20;99.90;;;;;;5013411;28;20639;-70
2023/10/03 00:08:55;;;;;;;28.13;18.33;;;20.30;99.90;;;;;;4995719;28;20455;-70
2023/10/03 00:11:22;;;;;;;29.97;18.33;;;20.20;99.90;;;;;;4996675;28;20180;-70
2023/10/03 00:13:50;;;;;;;25.53;16.63;;;20.20;99.90;;;;;;4995638;28;20238;-70
2023/10/03 00:16:17;;;;;;;25.23;17.40;;;20.10;99.90;;;;;;4995964;28;20826;-70
2023/10/03 00:18:43;;;;;;;33.00;18.43;;;20.20;99.90;;;;;;4976100;28;20487;-70
2023/10/03 00:21:08;;;;;;;29.00;17.70;;;20.20;99.90;;;;;;4976180;28;20441;-71
2023/10/03 00:23:34;;;;;;;26.70;17.27;;;20.20;99.90;;;;;;4976334;28;20447;-71
2023/10/03 00:26:00;;;;;;;29.10;18.07;;;20.20;99.90;;;;;;4975993;28;20208;-70
2023/10/03 00:28:26;;;;;;;26.80;17.20;;;20.20;99.90;;;;;;5010315;28;20223;-72
2023/10/03 00:30:52;;;;;;;28.23;17.30;;;20.20;99.90;;;;;;5013970;28;20179;-71
2023/10/03 00:33:18;;;;;;;25.80;18.00;;;20.20;99.90;;;;;;5015040;28;20443;-71
2023/10/03 00:35:43;;;;;;;26.50;18.00;;;20.20;99.90;;;;;;5015291;28;20172;-72
2023/10/03 00:38:13;;;;;;;25.60;17.50;;;20.10;99.90;;;;;;5000086;28;20656;-71
2023/10/03 00:40:43;;;;;;;27.40;17.53;;;20.10;99.90;;;;;;4995696;28;20183;-71
2023/10/03 00:43:08;;;;;;;25.37;16.57;;;20.10;99.90;;;;;;4995354;28;20420;-71
2023/10/03 00:45:34;;;;;;;26.00;16.63;;;20.10;99.90;;;;;;4995562;28;20411;-71
2023/10/03 00:48:07;;;;;;;28.87;17.40;;;20.10;99.90;;;;;;5008879;28;20226;-70
2023/10/03 00:50:34;;;;;;;28.10;17.30;;;20.20;99.90;;;;;;5015192;28;20388;-69
2023/10/03 00:53:10;;;;;;;26.00;16.50;;;20.20;99.90;;;;;;5013828;28;20443;-69
2023/10/03 00:55:38;;;;;;;28.30;17.50;;;20.10;99.90;;;;;;5013174;28;20407;-69
2023/10/03 01:00:39;;;;;;;29.60;19.43;;;20.20;99.90;;;;;;4995549;28;20402;-67
2023/10/03 01:03:09;;;;;;;28.53;16.57;;;20.20;99.90;;;;;;4994893;28;20554;-68
2023/10/03 01:05:36;;;;;;;24.10;17.20;;;20.20;99.90;;;;;;4995404;28;20419;-69
2023/10/03 01:08:04;;;;;;;23.90;16.50;;;20.10;99.90;;;;;;5006685;28;20415;-68
2023/10/03 01:10:32;;;;;;;25.07;16.93;;;20.10;99.90;;;;;;5014730;28;20486;-68
2023/10/03 01:13:07;;;;;;;27.33;17.73;;;20.00;99.90;;;;;;5014503;28;20452;-68
2023/10/03 01:15:33;;;;;;;23.63;15.47;;;20.00;99.90;;;;;;5016949;28;20383;-68
2023/10/03 01:18:01;;;;;;;27.70;18.20;;;19.90;99.90;;;;;;5002357;28;20832;-68
2023/10/03 01:20:40;;;;;;;25.93;17.03;;;19.80;99.90;;;;;;4995279;28;20407;-68
2023/10/03 01:23:12;;;;;;;28.07;16.73;;;19.80;99.90;;;;;;4994996;28;20963;-68
2023/10/03 01:25:44;;;;;;;25.73;16.77;;;19.80;99.90;;;;;;4994940;28;20881;-68
2023/10/03 01:28:11;;;;;;;21.37;15.50;;;19.80;99.90;;;;;;4996010;28;20418;-69
2023/10/03 01:30:37;;;;;;;26.77;17.70;;;19.80;99.90;;;;;;5007987;28;20869;-68
2023/10/03 01:33:04;;;;;;;26.57;16.27;;;19.60;99.90;;;;;;5013726;28;20454;-67
2023/10/03 01:35:30;;;;;;;24.20;16.53;;;19.60;99.90;;;;;;5013942;28;20407;-68
2023/10/03 01:37:55;;;;;;;28.67;18.10;;;19.50;99.90;;;;;;5002014;28;20410;-69
2023/10/03 01:40:21;;;;;;;27.40;16.00;;;19.60;99.90;;;;;;4994124;28;20192;-68
2023/10/03 01:42:48;;;;;;;23.90;16.30;;;19.60;99.90;;;;;;4994283;28;20165;-67
2023/10/03 01:45:17;;;;;;;27.87;16.97;;;19.60;99.90;;;;;;4994366;28;20451;-68
2023/10/03 01:47:50;;;;;;;22.70;15.03;;;19.60;99.90;;;;;;5004364;28;20407;-67
2023/10/03 01:50:19;;;;;;;28.53;17.67;;;19.60;99.90;;;;;;5013756;28;20533;-69
2023/10/03 01:52:46;;;;;;;25.13;16.27;;;19.60;99.90;;;;;;5013703;28;20446;-68
2023/10/03 01:55:17;;;;;;;25.63;16.67;;;19.70;99.90;;;;;;5013529;28;20403;-68
2023/10/03 01:57:47;;;;;;;22.30;14.20;;;19.70;99.90;;;;;;5003592;28;20401;-68
2023/10/03 02:00:24;;;;;;;23.00;15.93;;;19.80;99.90;;;;;;4993974;28;20420;-68
2023/10/03 02:02:53;;;;;;;25.37;15.60;;;19.90;99.90;;;;;;4994060;28;20458;-68
2023/10/03 02:05:22;;;;;;;26.00;16.10;;;20.00;99.90;;;;;;4994373;28;20498;-68
2023/10/03 02:07:47;;;;;;;22.43;15.20;;;20.10;99.90;;;;;;5004988;28;20437;-66
2023/10/03 02:10:13;;;;;;;20.77;14.80;;;20.10;99.90;;;;;;5013547;28;21009;-68
2023/10/03 02:12:48;;;;;;;22.90;15.03;;;20.10;99.90;;;;;;5011936;28;20207;-67
2023/10/03 02:15:15;;;;;;;28.37;16.90;;;20.10;99.90;;;;;;5013637;28;20156;-67
2023/10/03 02:17:40;;;;;;;22.00;15.53;;;19.90;99.90;;;;;;5003648;28;20490;-68
2023/10/03 02:20:10;;;;;;;25.07;16.07;;;19.90;99.90;;;;;;4993609;28;20459;-68
2023/10/03 02:22:38;;;;;;;28.20;16.50;;;19.90;99.90;;;;;;4993982;28;20640;-68
2023/10/03 02:25:04;;;;;;;25.00;16.53;;;19.80;99.90;;;;;;4993743;28;20400;-68
2023/10/03 02:27:29;;;;;;;26.07;16.70;;;19.80;99.90;;;;;;5001729;28;20415;-69
2023/10/03 02:29:58;;;;;;;25.43;17.07;;;19.90;99.90;;;;;;5013309;28;20188;-68
2023/10/03 02:32:25;;;;;;;28.00;17.17;;;19.80;99.90;;;;;;5013274;28;20195;-67
2023/10/03 02:34:51;;;;;;;19.90;14.20;;;19.70;99.90;;;;;;5013357;28;20411;-67
2023/10/03 02:37:16;;;;;;;21.40;15.57;;;19.60;99.90;;;;;;5007124;28;20403;-67
2023/10/03 02:39:43;;;;;;;22.10;14.67;;;19.50;99.90;;;;;;4993615;28;20791;-67
2023/10/03 02:42:09;;;;;;;24.23;15.70;;;19.40;99.90;;;;;;4993382;28;20176;-68
2023/10/03 02:44:36;;;;;;;23.03;14.43;;;19.40;99.90;;;;;;4993738;28;20416;-68
2023/10/03 02:47:04;;;;;;;22.30;14.93;;;19.30;99.90;;;;;;4997460;28;20164;-67
2023/10/03 02:49:30;;;;;;;24.60;14.50;;;19.40;99.90;;;;;;5013553;28;20427;-67
2023/10/03 02:51:55;;;;;;;22.40;15.80;;;19.40;99.90;;;;;;5013000;28;20921;-67
2023/10/03 02:54:22;;;;;;;22.77;14.57;;;19.40;99.90;;;;;;5010024;28;20423;-68
2023/10/03 02:56:48;;;;;;;24.40;15.47;;;19.50;99.90;;;;;;5011406;28;20589;-67
2023/10/03 02:59:13;;;;;;;22.03;15.40;;;19.50;99.90;;;;;;4993459;28;20423;-67
2023/10/03 03:01:39;;;;;;;20.87;14.73;;;19.50;99.90;;;;;;4993590;28;20223;-67
2023/10/03 03:04:05;;;;;;;21.57;14.83;;;19.60;99.90;;;;;;4993542;28;20216;-68
2023/10/03 03:06:31;;;;;;;20.50;14.30;;;19.60;99.90;;;;;;4993207;28;20176;-68
2023/10/03 03:08:57;;;;;;;19.50;13.97;;;19.70;99.90;;;;;;5012212;28;20454;-68
2023/10/03 03:11:22;;;;;;;19.87;14.30;;;19.70;99.90;;;;;;5012809;28;20184;-67
2023/10/03 03:13:49;;;;;;;19.83;14.10;;;19.70;99.90;;;;;;5012957;28;20195;-67
2023/10/03 03:16:15;;;;;;;18.93;12.47;;;19.80;99.90;;;;;;5012890;28;20172;-67
2023/10/03 03:18:41;;;;;;;23.53;13.40;;;19.90;99.90;;;;;;4996080;28;20459;-68
2023/10/03 03:21:10;;;;;;;23.13;15.10;;;19.90;99.90;;;;;;4992698;28;20415;-68
2023/10/03 03:23:37;;;;;;;23.23;13.90;;;20.00;99.90;;;;;;4993449;28;20435;-68
2023/10/03 03:26:20;;;;;;;19.53;12.90;;;19.90;99.90;;;;;;4995631;28;20785;-68
2023/10/03 03:28:49;;;;;;;18.20;13.23;;;19.80;99.90;;;;;;5014104;28;20435;-68
2023/10/03 03:31:31;;;;;;;18.63;12.30;;;19.80;99.90;;;;;;5016354;28;20407;-68
2023/10/03 03:33:57;;;;;;;17.57;13.40;;;19.90;99.90;;;;;;5001285;28;20447;-69
2023/10/03 03:36:29;;;;;;;20.40;13.20;;;19.90;99.90;;;;;;4996499;28;20411;-68
2023/10/03 03:38:56;;;;;;;19.37;14.17;;;20.10;99.90;;;;;;5014650;28;20184;-68
2023/10/03 03:41:22;;;;;;;19.70;13.30;;;20.00;99.90;;;;;;5015951;28;20407;-68
2023/10/03 03:43:48;;;;;;;21.03;13.10;;;20.10;99.90;;;;;;5016167;28;20920;-68
2023/10/03 03:46:15;;;;;;;18.23;11.80;;;20.10;99.90;;;;;;5015918;28;20655;-68
2023/10/03 03:48:40;;;;;;;16.30;11.30;;;20.10;99.90;;;;;;4999450;28;20930;-67
2023/10/03 03:51:09;;;;;;;14.20;9.80;;;20.30;99.90;;;;;;4996375;28;20404;-68
2023/10/03 03:53:35;;;;;;;17.17;11.27;;;20.50;99.90;;;;;;4996531;28;20279;-68
2023/10/03 03:56:04;;;;;;;17.03;11.70;;;20.60;99.90;;;;;;4996317;28;20488;-69
2023/10/03 03:58:31;;;;;;;18.60;13.43;;;20.60;99.90;;;;;;5010811;28;20192;-68
2023/10/03 04:00:58;;;;;;;21.90;14.67;;;20.50;99.90;;;;;;5016335;28;20803;-68
2023/10/03 04:03:24;;;;;;;19.23;13.90;;;20.40;99.90;;;;;;5017400;28;20857;-67
2023/10/03 04:05:50;;;;;;;20.33;12.70;;;20.40;99.90;;;;;;5017635;28;20411;-68
2023/10/03 04:08:16;;;;;;;20.63;13.47;;;20.40;99.90;;;;;;5004486;28;20639;-68
2023/10/03 04:10:45;;;;;;;15.60;10.97;;;20.60;99.90;;;;;;4996949;28;20442;-67
2023/10/03 04:13:11;;;;;;;18.03;12.47;;;20.50;99.90;;;;;;4996232;28;20242;-68
2023/10/03 04:15:40;;;;;;;20.03;13.00;;;20.40;99.90;;;;;;4996282;28;20436;-67
2023/10/03 04:18:07;;;;;;;17.43;11.80;;;20.40;99.90;;;;;;5006975;28;20164;-68
2023/10/03 04:20:35;;;;;;;15.60;11.27;;;20.50;99.90;;;;;;5015833;28;20418;-69
2023/10/03 04:23:03;;;;;;;15.83;10.73;;;20.50;99.90;;;;;;5015250;28;20415;-68
2023/10/03 04:25:30;;;;;;;17.20;10.93;;;20.50;99.90;;;;;;5015369;28;20565;-68
2023/10/03 04:27:56;;;;;;;16.07;10.77;;;20.40;99.90;;;;;;5005740;28;20404;-69
2023/10/03 04:30:26;;;;;;;15.60;8.53;;;20.50;99.90;;;;;;4995574;28;20798;-68
2023/10/03 04:32:53;;;;;;;13.87;9.30;;;20.50;99.90;;;;;;4995557;28;20450;-67
2023/10/03 04:35:20;;;;;;;14.10;10.47;;;20.60;99.90;;;;;;4995771;28;20408;-69
2023/10/03 04:37:52;;;;;;;12.50;9.80;;;20.60;99.90;;;;;;5003762;28;20450;-68
2023/10/03 04:40:22;;;;;;;12.83;9.60;;;20.60;99.90;;;;;;5015271;28;20498;-69
2023/10/03 04:42:52;;;;;;;13.80;9.50;;;20.70;99.90;;;;;;5015148;28;20461;-67
2023/10/03 04:45:19;;;;;;;14.70;10.20;;;20.70;99.90;;;;;;5015821;28;20474;-69
2023/10/03 04:47:47;;;;;;;13.93;9.30;;;20.70;99.90;;;;;;5007438;28;20507;-69
2023/10/03 04:50:17;;;;;;;15.40;9.40;;;20.80;99.90;;;;;;4995426;28;21001;-69
2023/10/03 04:52:43;;;;;;;13.03;9.00;;;20.70;99.90;;;;;;4998039;28;20542;-68
2023/10/03 04:55:09;;;;;;;12.20;9.00;;;20.70;99.90;;;;;;4995214;28;20400;-69
2023/10/03 04:57:35;;;;;;;11.50;8.40;;;20.80;99.90;;;;;;5001427;28;20964;-70
2023/10/03 05:00:03;;;;;;;12.83;9.20;;;20.90;99.90;;;;;;5015024;28;20211;-69
2023/10/03 05:02:30;;;;;;;12.10;8.97;;;21.00;99.90;;;;;;5014947;28;20407;-70
2023/10/03 05:04:55;;;;;;;11.27;8.43;;;21.00;99.90;;;;;;5014504;28;20984;-69
2023/10/03 05:07:23;;;;;;;14.57;9.97;;;21.00;99.90;;;;;;5010355;28;20503;-69
2023/10/03 05:09:51;;;;;;;12.23;9.10;;;21.00;99.90;;;;;;4994748;28;20212;-69
2023/10/03 05:12:17;;;;;;;15.20;9.40;;;20.90;99.90;;;;;;4994432;28;20455;-68
2023/10/03 05:14:45;;;;;;;11.50;8.73;;;20.70;99.90;;;;;;4994993;28;20458;-70
2023/10/03 05:17:10;;;;;;;13.40;9.50;;;20.70;99.90;;;;;;4997802;28;20518;-68
2023/10/03 05:19:36;;;;;;;11.83;9.00;;;20.70;99.90;;;;;;5014092;28;20458;-68
2023/10/03 05:22:03;;;;;;;13.93;9.63;;;20.60;99.90;;;;;;5012827;28;20168;-68
2023/10/03 05:24:32;;;;;;;14.60;9.67;;;20.60;99.90;;;;;;5014045;28;20184;-68
2023/10/03 05:26:58;;;;;;;14.37;10.23;;;20.50;99.90;;;;;;5013997;28;20399;-68
2023/10/03 05:29:26;;;;;;;15.80;10.17;;;20.60;99.90;;;;;;4994330;28;20807;-68
2023/10/03 05:31:52;;;;;;;13.30;9.73;;;20.50;99.90;;;;;;4994712;28;20407;-68
2023/10/03 05:34:20;;;;;;;15.20;9.50;;;20.60;99.90;;;;;;4994351;28;20455;-69
2023/10/03 05:36:46;;;;;;;13.93;10.37;;;20.50;99.90;;;;;;4994397;28;20215;-68
2023/10/03 05:39:12;;;;;;;13.93;9.13;;;20.50;99.90;;;;;;5000818;28;20424;-68
2023/10/03 05:41:41;;;;;;;14.87;10.27;;;20.50;99.90;;;;;;4994294;28;20499;-67
2023/10/03 05:44:12;;;;;;;13.63;9.60;;;20.50;99.90;;;;;;4994019;28;20180;-69
2023/10/03 05:46:42;;;;;;;11.90;8.90;;;20.50;99.90;;;;;;4994029;28;20396;-67
2023/10/03 05:49:09;;;;;;;13.37;9.50;;;20.50;99.90;;;;;;5011587;28;20439;-68
2023/10/03 05:51:35;;;;;;;16.03;9.97;;;20.40;99.90;;;;;;5013657;28;20418;-68
2023/10/03 05:54:02;;;;;;;14.40;10.20;;;20.30;99.90;;;;;;5013471;28;20451;-67
2023/10/03 05:56:28;;;;;;;12.30;9.20;;;20.40;99.90;;;;;;5014573;28;20230;-68
2023/10/03 05:58:53;;;;;;;11.60;8.77;;;20.50;99.90;;;;;;4997178;28;20432;-68
2023/10/03 06:01:19;;;;;;;11.80;9.10;;;20.50;99.90;;;;;;4993922;28;20169;-68
2023/10/03 06:03:45;;;;;;;13.63;9.13;;;20.60;99.90;;;;;;4993972;28;20215;-68
2023/10/03 06:06:11;;;;;;;12.63;8.40;;;20.60;99.90;;;;;;4993758;28;20499;-69
2023/10/03 06:08:37;;;;;;;11.33;8.77;;;20.70;99.90;;;;;;5007247;28;20214;-68
2023/10/03 06:11:03;;;;;;;11.03;8.43;;;20.80;99.90;;;;;;5036301;23;20687;-72
2023/10/03 06:13:29;;;;;;;13.23;8.40;;;20.80;99.90;;;;;;5012611;28;20446;-72
2023/10/03 06:15:59;;;;;;;11.33;8.23;;;20.80;99.90;;;;;;5012877;28;20454;-72
2023/10/03 06:18:25;;;;;;;9.50;8.03;;;20.70;99.90;;;;;;5027733;28;20271;-72
2023/10/03 06:20:51;;;;;;;10.40;7.60;;;20.80;99.90;;;;;;5012613;28;20455;-72
2023/10/03 06:23:16;;;;;;;14.43;9.00;;;20.80;99.90;;;;;;5012623;28;20440;-72
2023/10/03 06:25:42;;;;;;;10.73;7.80;;;20.80;99.90;;;;;;5012932;28;20167;-73
2023/10/03 06:28:07;;;;;;;8.90;7.40;;;20.80;99.90;;;;;;5012442;28;20179;-72
2023/10/03 06:30:37;;;;;;;12.00;7.90;;;20.90;99.90;;;;;;5011397;28;20269;-72
2023/10/03 06:33:05;;;;;;;11.23;7.70;;;20.90;99.90;;;;;;5012634;28;20188;-72
2023/10/03 06:35:32;;;;;;;13.90;8.00;;;20.80;99.90;;;;;;5012795;28;20493;-72
2023/10/03 06:37:57;;;;;;;13.37;9.37;;;20.80;99.90;;;;;;5011388;28;20411;-72
2023/10/03 06:40:23;;;;;;;12.00;8.83;;;20.80;99.90;;;;;;5012864;28;20437;-72
2023/10/03 06:42:48;;;;;;;10.83;7.70;;;21.00;99.90;;;;;;5012619;28;20546;-72
2023/10/03 06:45:14;;;;;;;12.67;8.30;;;20.90;99.90;;;;;;5012541;28;20656;-72
2023/10/03 06:47:40;;;;;;;11.50;8.80;;;20.90;99.90;;;;;;5012525;28;20676;-72
2023/10/03 06:50:07;;;;;;;10.53;7.63;;;21.10;99.90;;;;;;5011280;28;20271;-72
2023/10/03 06:52:34;;;;;;;13.67;8.33;;;21.20;99.90;;;;;;5012767;28;20204;-72
2023/10/03 06:55:01;;;;;;;11.67;7.83;;;21.20;99.90;;;;;;5012272;28;20497;-72
2023/10/03 06:57:26;;;;;;;10.60;8.80;;;21.30;99.90;;;;;;5012725;28;20465;-74
2023/10/03 06:59:54;;;;;;;11.70;8.20;;;21.40;99.90;;;;;;5011864;28;20894;-73
2023/10/03 07:02:20;;;;;;;13.27;8.27;;;21.50;99.90;;;;;;5016328;28;20226;-73
2023/10/03 07:04:46;;;;;;;13.03;8.87;;;21.70;99.90;;;;;;5016035;28;20411;-75
2023/10/03 07:07:12;;;;;;;13.37;7.20;;;21.70;99.90;;;;;;5015877;28;20164;-72
2023/10/03 07:09:38;;;;;;;10.50;8.40;;;21.80;99.90;;;;;;5015522;28;20410;-74
2023/10/03 07:12:07;;;;;;;13.73;9.43;;;21.80;99.90;;;;;;5013739;28;20175;-70
2023/10/03 07:14:35;;;;;;;12.00;7.93;;;21.90;99.90;;;;;;5016040;28;20410;-71
2023/10/03 07:17:01;;;;;;;10.90;8.27;;;22.00;99.90;;;;;;5015708;28;20964;-73
2023/10/03 07:19:26;;;;;;;10.43;7.83;;;22.20;99.90;;;;;;5015568;28;20490;-74
2023/10/03 07:21:53;;;;;;;12.33;8.60;;;22.30;99.90;;;;;;5015921;28;20490;-72
2023/10/03 07:24:20;;;;;;;11.23;8.53;;;22.50;99.90;;;;;;5015683;28;20226;-72
2023/10/03 07:26:46;;;;;;;10.43;8.30;;;22.40;99.90;;;;;;5015993;28;20821;-74
2023/10/03 07:29:11;;;;;;;10.93;8.03;;;22.60;99.90;;;;;;5015712;28;20411;-72
2023/10/03 07:31:38;;;;;;;12.07;8.23;;;22.50;99.90;;;;;;5015284;28;20290;-74
2023/10/03 07:34:04;;;;;;;9.70;7.97;;;22.50;99.90;;;;;;5015650;28;20199;-74
2023/10/03 07:36:29;;;;;;;8.97;7.83;;;22.60;99.90;;;;;;5015687;28;20915;-73
2023/10/03 07:38:55;;;;;;;12.13;8.77;;;22.80;99.90;;;;;;5015584;28;20541;-72
2023/10/03 07:41:21;;;;;;;8.03;6.80;;;22.90;99.90;;;;;;5015815;28;20188;-74
2023/10/03 07:43:48;;;;;;;11.57;8.30;;;23.00;99.90;;;;;;5015254;28;20176;-74
2023/10/03 07:46:25;;;;;;;10.33;8.03;;;23.20;99.90;;;;;;5015428;28;20407;-74
2023/10/03 07:48:54;;;;;;;13.17;9.27;;;23.20;99.90;;;;;;5015237;28;20406;-73
2023/10/03 07:51:26;;;;;;;9.87;7.33;;;23.30;99.90;;;;;;5015383;28;21015;-72
2023/10/03 07:53:52;;;;;;;11.10;7.60;;;23.40;99.90;;;;;;5015904;28;20442;-71
2023/10/03 07:56:31;;;;;;;10.23;7.80;;;23.50;99.90;;;;;;5015448;28;20399;-73
2023/10/03 07:59:01;;;;;;;9.73;7.37;;;23.60;99.90;;;;;;5013991;28;20418;-73
2023/10/03 08:01:27;;;;;;;10.63;7.83;;;23.70;99.90;;;;;;5015540;28;20481;-72
2023/10/03 08:03:53;;;;;;;12.10;7.10;;;23.80;99.90;;;;;;5014827;28;20944;-72
2023/10/03 08:06:33;;;;;;;9.70;7.17;;;23.90;99.90;;;;;;5014922;28;20422;-72
2023/10/03 08:08:59;;;;;;;8.93;6.83;;;24.00;99.70;;;;;;5015234;28;20764;-76
2023/10/03 08:11:32;;;;;;;10.80;7.77;;;24.20;99.30;;;;;;5014263;28;20530;-73
2023/10/03 08:14:13;;;;;;;10.30;7.43;;;24.20;99.50;;;;;;5014947;28;20525;-72
2023/10/03 08:16:43;;;;;;;9.80;6.57;;;24.30;99.10;;;;;;5015012;28;20441;-72
2023/10/03 08:19:21;;;;;;;9.30;6.60;;;24.50;98.90;;;;;;5014654;28;20917;-72
2023/10/03 08:21:48;;;;;;;9.20;6.80;;;24.60;98.20;;;;;;5014865;28;20426;-72
2023/10/03 08:24:14;;;;;;;7.70;5.60;;;24.80;97.80;;;;;;5014597;28;20399;-71
2023/10/03 08:26:46;;;;;;;8.07;6.40;;;25.10;97.20;;;;;;5013983;28;20951;-71
2023/10/03 08:29:21;;;;;;;8.83;6.47;;;25.20;97.40;;;;;;5014540;28;20403;-71
2023/10/03 08:31:49;;;;;;;7.20;6.37;;;25.40;96.70;;;;;;5014246;28;20393;-72
2023/10/03 08:34:19;;;;;;;7.10;6.33;;;25.40;96.80;;;;;;5014272;28;20447;-72
2023/10/03 08:36:45;;;;;;;8.63;7.17;;;25.60;96.40;;;;;;5014236;28;20406;-70
2023/10/03 08:39:14;;;;;;;6.53;5.83;;;25.90;96.20;;;;;;5014095;28;20901;-71
2023/10/03 08:41:48;;;;;;;9.90;6.27;;;26.10;96.00;;;;;;5013982;28;20233;-71
2023/10/03 08:44:14;;;;;;;6.13;5.33;;;26.20;95.80;;;;;;5014143;28;20409;-72
2023/10/03 08:46:50;;;;;;;6.97;5.93;;;26.10;95.80;;;;;;5013994;28;20445;-73
2023/10/03 08:49:19;;;;;;;7.90;5.50;;;26.20;95.20;;;;;;5013794;28;20604;-74
2023/10/03 08:51:48;;;;;;;7.53;6.00;;;26.10;95.50;;;;;;5014367;28;20446;-74
2023/10/03 08:54:14;;;;;;;7.13;5.60;;;26.20;95.90;;;;;;5014445;28;20449;-74
2023/10/03 08:56:41;;;;;;;7.00;6.30;;;26.30;95.50;;;;;;5014116;28;20774;-74
2023/10/03 08:59:09;;;;;;;9.83;5.60;;;26.20;95.20;;;;;;5013711;28;20187;-75
2023/10/03 09:01:38;;;;;;;6.87;6.17;;;26.30;95.90;;;;;;5013891;28;20427;-75
2023/10/03 09:04:09;;;;;;;6.87;6.17;;;26.30;95.60;;;;;;5013612;28;20406;-72
2023/10/03 09:06:38;;;;;;;6.90;5.33;;;26.30;95.20;;;;;;5014089;28;20399;-72
2023/10/03 09:09:13;;;;;;;7.00;5.60;;;26.40;95.00;;;;;;5013997;28;20498;-72
2023/10/03 09:11:51;;;;;;;6.63;5.83;;;26.80;94.80;;;;;;5013073;28;20451;-74
2023/10/03 09:14:20;;;;;;;7.03;5.80;;;26.90;95.10;;;;;;5013863;28;20488;-75
2023/10/03 09:16:53;;;;;;;6.50;5.70;;;26.60;94.60;;;;;;5013994;28;20407;-75
2023/10/03 09:19:25;;;;;;;6.70;5.90;;;26.60;94.80;;;;;;5014066;28;20759;-73
2023/10/03 09:21:51;;;;;;;9.47;6.30;;;26.80;94.70;;;;;;5012944;28;20403;-74
2023/10/03 09:24:25;;;;;;;7.30;6.13;;;26.90;95.10;;;;;;5013137;28;20415;-73
2023/10/03 09:26:54;;;;;;;7.73;5.70;;;27.10;94.40;;;;;;5013548;28;20387;-74
2023/10/03 09:29:30;;;;;;;10.30;5.93;;;27.30;94.70;;;;;;5013387;28;20419;-76
2023/10/03 09:32:20;;;;;;;8.63;6.93;;;27.20;94.10;;;;;;5013418;28;20435;-75
2023/10/03 09:34:56;;;;;;;7.33;5.97;;;27.10;95.20;;;;;;5013418;28;20387;-74
2023/10/03 09:37:28;;;;;;;8.97;6.37;;;27.20;95.00;;;;;;5013269;28;20375;-73
2023/10/03 09:39:59;;;;;;;7.10;6.03;;;27.30;94.00;;;;;;5013071;28;20427;-73
2023/10/03 09:42:25;;;;;;;11.07;7.20;;;27.50;93.90;;;;;;5013653;28;20379;-75
2023/10/03 09:45:00;;;;;;;6.63;5.87;;;27.60;94.50;;;;;;5011858;28;20776;-73
2023/10/03 09:47:30;;;;;;;7.33;6.60;;;27.50;93.90;;;;;;5012867;28;20387;-75
2023/10/03 09:50:07;;;;;;;8.50;6.10;;;27.50;93.90;;;;;;5012818;28;20549;-72
2023/10/03 09:52:36;;;;;;;8.80;5.90;;;27.30;93.70;;;;;;5011646;28;20455;-73
2023/10/03 09:55:17;;;;;;;10.20;6.47;;;27.30;93.80;;;;;;5013545;28;20746;-71
2023/10/03 09:57:52;;;;;;;8.07;5.77;;;27.60;93.90;;;;;;5012822;28;20441;-73
2023/10/03 10:00:39;;;;;;;9.40;6.20;;;27.70;93.50;;;;;;5012922;28;20415;-74
2023/10/03 10:03:19;;;;;;;6.53;5.50;;;28.00;94.10;;;;;;5012990;28;20809;-73
2023/10/03 10:06:12;;;;;;;10.13;5.73;;;28.40;93.00;;;;;;5012727;28;20387;-73
2023/10/03 10:08:47;;;;;;;8.37;6.13;;;28.50;93.10;;;;;;5012913;28;20410;-77
2023/10/03 10:11:13;;;;;;;6.50;5.13;;;28.30;92.60;;;;;;5012993;28;21019;-76
2023/10/03 10:13:59;;;;;;;7.10;5.77;;;28.20;92.80;;;;;;5012542;28;20443;-76
2023/10/03 10:16:28;;;;;;;7.47;6.40;;;28.10;92.60;;;;;;5012716;28;20634;-75
2023/10/03 10:18:54;;;;;;;6.90;5.50;;;28.50;92.30;;;;;;5012504;28;20870;-73
2023/10/03 10:21:20;;;;;;;6.30;4.90;;;28.50;92.40;;;;;;5012885;28;20477;-72
2023/10/03 10:24:20;;;;;;;5.70;5.07;;;28.40;92.60;;;;;;5012579;28;20495;-73
2023/10/03 10:26:48;;;;;;;4.70;4.30;;;28.30;92.40;;;;;;5012543;28;20155;-73
2023/10/03 10:29:19;;;;;;;7.77;5.87;;;28.10;92.50;;;;;;5012334;28;20415;-74
2023/10/03 10:31:49;;;;;;;7.47;5.07;;;28.10;92.20;;;;;;5012441;28;20431;-73
2023/10/03 10:34:21;;;;;;;7.63;5.50;;;28.20;92.60;;;;;;5013928;28;20439;-73
2023/10/03 10:37:09;;;;;;;6.67;5.60;;;28.20;92.10;;;;;;5016385;28;20395;-74
2023/10/03 10:39:53;;;;;;;7.83;5.30;;;27.90;92.80;;;;;;5017088;28;20760;-74
2023/10/03 10:42:20;;;;;;;7.53;5.53;;;28.10;93.30;;;;;;5016889;28;20745;-73
2023/10/03 10:45:13;;;;;;;9.20;5.87;;;28.30;92.40;;;;;;5017212;28;20465;-74
2023/10/03 10:47:50;;;;;;;6.73;5.87;;;28.60;91.90;;;;;;5016933;28;20387;-74
2023/10/03 10:50:25;;;;;;;6.47;5.70;;;28.60;91.90;;;;;;5016601;28;20494;-74
2023/10/03 10:53:05;;;;;;;8.47;5.87;;;28.70;92.00;;;;;;5016385;28;20438;-75
2023/10/03 10:55:33;;;;;;;6.20;5.60;;;28.50;92.50;;;;;;5016381;28;20383;-75
2023/10/03 10:58:08;;;;;;;8.60;5.73;;;28.80;92.10;;;;;;5016111;28;20737;-74
2023/10/03 11:00:34;;;;;;;5.90;5.30;;;29.00;91.90;;;;;;5015557;28;20502;-74
2023/10/03 11:03:04;;;;;;;6.57;4.80;;;29.60;91.30;;;;;;5016158;28;20403;-74
2023/10/03 11:05:47;;;;;;;7.20;5.30;;;30.00;90.60;;;;;;5016289;28;20494;-74
2023/10/03 11:08:13;;;;;;;7.97;5.43;;;31.10;88.80;;;;;;5015547;28;20438;-74
2023/10/03 11:10:52;;;;;;;6.67;5.10;;;32.40;83.60;;;;;;5015496;28;20538;-74
2023/10/03 11:13:19;;;;;;;6.10;5.50;;;33.70;80.60;;;;;;5016106;28;20446;-74
2023/10/03 11:15:51;;;;;;;6.53;5.70;;;33.40;80.00;;;;;;5014992;28;20490;-74
2023/10/03 11:18:27;;;;;;;6.47;5.80;;;33.60;77.50;;;;;;5015479;28;20485;-74
2023/10/03 11:20:55;;;;;;;6.90;6.17;;;31.80;81.50;;;;;;5014981;28;20643;-74
2023/10/03 11:23:23;;;;;;;6.10;5.47;;;31.10;82.90;;;;;;5015813;28;20442;-75
2023/10/03 11:26:00;;;;;;;7.30;5.10;;;31.20;83.20;;;;;;5015638;28;20410;-74
2023/10/03 11:28:28;;;;;;;6.10;5.50;;;31.20;82.90;;;;;;5015325;28;20473;-74
2023/10/03 11:31:04;;;;;;;9.30;5.43;;;30.60;84.20;;;;;;5015331;28;20437;-74
2023/10/03 11:33:43;;;;;;;7.37;6.50;;;30.00;85.00;;;;;;5015231;28;20886;-74
2023/10/03 11:36:09;;;;;;;6.63;5.90;;;29.60;86.80;;;;;;5015876;28;20452;-74
2023/10/03 11:38:50;;;;;;;9.70;5.90;;;29.30;87.00;;;;;;5015181;28;20407;-73
2023/10/03 11:41:30;;;;;;;8.50;5.60;;;29.10;87.90;;;;;;5015217;28;20422;-73
2023/10/03 11:43:56;;;;;;;7.80;6.30;;;29.00;89.20;;;;;;5014005;28;20411;-74
2023/10/03 11:46:21;;;;;;;7.20;6.10;;;29.10;88.60;;;;;;5014089;28;20948;-74
2023/10/03 11:48:58;;;;;;;5.93;4.90;;;29.40;87.30;;;;;;5014741;28;20693;-74
2023/10/03 11:51:25;;;;;;;6.07;5.00;;;29.70;86.50;;;;;;5015112;28;20187;-73
2023/10/03 11:53:51;;;;;;;5.60;5.10;;;29.50;86.90;;;;;;5015459;28;21020;-74
2023/10/03 11:56:17;;;;;;;6.97;5.43;;;30.10;87.00;;;;;;5013441;28;20407;-74
2023/10/03 11:58:43;;;;;;;7.27;4.93;;;30.90;83.00;;;;;;5014907;28;20546;-74
2023/10/03 12:01:08;;;;;;;5.70;5.10;;;31.30;83.20;;;;;;5013288;28;20192;-73
2023/10/03 12:03:34;;;;;;;6.13;5.03;;;31.00;81.20;;;;;;5014640;28;20673;-74
2023/10/03 12:06:00;;;;;;;6.10;5.50;;;30.20;82.60;;;;;;5014448;28;20574;-73
2023/10/03 12:08:25;;;;;;;9.43;6.00;;;29.70;84.20;;;;;;5014430;28;20434;-74
2023/10/03 12:10:51;;;;;;;6.57;5.80;;;29.50;86.80;;;;;;5038756;23;20231;-71
2023/10/03 12:13:16;;;;;;;6.90;6.00;;;29.60;86.60;;;;;;5015407;28;20188;-71
2023/10/03 12:15:42;;;;;;;9.40;6.83;;;30.20;85.20;;;;;;5015352;28;20160;-71
2023/10/03 12:18:09;;;;;;;9.57;5.90;;;29.60;85.40;;;;;;5015158;28;20555;-72
2023/10/03 12:20:37;;;;;;;6.63;5.90;;;29.10;86.80;;;;;;5015724;28;20474;-72
2023/10/03 12:23:04;;;;;;;6.83;6.13;;;28.90;89.00;;;;;;5015663;28;20857;-70
2023/10/03 12:25:30;;;;;;;8.53;6.63;;;28.60;89.00;;;;;;5015396;28;20426;-71
2023/10/03 12:27:55;;;;;;;8.43;6.30;;;28.40;89.10;;;;;;5015333;28;20411;-71
2023/10/03 12:30:22;;;;;;;6.87;6.23;;;28.50;89.10;;;;;;5015126;28;20435;-69
2023/10/03 12:32:49;;;;;;;13.00;6.40;;;28.80;89.50;;;;;;5015259;28;20196;-71
2023/10/03 12:35:16;;;;;;;6.57;5.93;;;29.30;87.50;;;;;;5015231;28;20430;-70
2023/10/03 12:37:46;;;;;;;9.53;6.47;;;29.30;87.80;;;;;;5014742;28;20412;-72
2023/10/03 12:40:13;;;;;;;10.03;6.37;;;28.80;88.10;;;;;;5014756;28;20930;-71
2023/10/03 12:42:41;;;;;;;8.10;6.57;;;28.40;89.50;;;;;;5014749;28;20421;-70
2023/10/03 12:45:07;;;;;;;8.60;7.10;;;28.00;90.40;;;;;;5015008;28;20501;-72
2023/10/03 12:47:35;;;;;;;7.03;6.33;;;28.00;90.50;;;;;;5014500;28;20435;-72